sensor_id;sensor_type;location;lat;lon;timestamp;pressure;altitude;pressure_sealevel;temperature;humidity
78841;BME280;68379;47.190;27.558;2023-04-10T00:01:06;100308.54;;;4.12;71.16
78841;BME280;68379;47.190;27.558;2023-04-10T00:03:37;100310.12;;;4.09;71.06
78841;BME280;68379;47.190;27.558;2023-04-10T00:06:10;100312.23;;;4.07;71.43
78841;BME280;68379;47.190;27.558;2023-04-10T00:08:42;100308.03;;;4.06;71.74
78841;BME280;68379;47.190;27.558;2023-04-10T00:11:14;100306.29;;;4.06;71.42
78841;BME280;68379;47.190;27.558;2023-04-10T00:13:45;100309.45;;;4.04;71.18
78841;BME280;68379;47.190;27.558;2023-04-10T00:16:17;100308.76;;;4.03;71.23
78841;BME280;68379;47.190;27.558;2023-04-10T00:18:49;100309.27;;;4.04;71.11
78841;BME280;68379;47.190;27.558;2023-04-10T00:21:21;100309.61;;;4.05;71.15
78841;BME280;68379;47.190;27.558;2023-04-10T00:23:53;100307.35;;;4.05;70.98
78841;BME280;68379;47.190;27.558;2023-04-10T00:26:24;100307.00;;;4.04;71.18
78841;BME280;68379;47.190;27.558;2023-04-10T00:28:56;100304.39;;;4.01;71.26
78841;BME280;68379;47.190;27.558;2023-04-10T00:31:28;100302.48;;;3.98;71.23
78841;BME280;68379;47.190;27.558;2023-04-10T00:34:00;100298.14;;;3.93;71.19
78841;BME280;68379;47.190;27.558;2023-04-10T00:36:32;100299.19;;;3.91;71.57
78841;BME280;68379;47.190;27.558;2023-04-10T00:39:04;100293.43;;;3.89;71.64
78841;BME280;68379;47.190;27.558;2023-04-10T00:41:37;100290.30;;;3.86;71.56
78841;BME280;68379;47.190;27.558;2023-04-10T00:44:09;100296.08;;;3.85;71.36
78841;BME280;68379;47.190;27.558;2023-04-10T00:46:42;100293.12;;;3.82;71.52
78841;BME280;68379;47.190;27.558;2023-04-10T00:49:14;100295.77;;;3.78;71.51
78841;BME280;68379;47.190;27.558;2023-04-10T00:51:49;100295.26;;;3.74;71.72
78841;BME280;68379;47.190;27.558;2023-04-10T00:54:21;100292.31;;;3.69;71.98
78841;BME280;68379;47.190;27.558;2023-04-10T00:56:53;100291.98;;;3.63;72.00
78841;BME280;68379;47.190;27.558;2023-04-10T00:59:26;100291.30;;;3.58;72.02
78841;BME280;68379;47.190;27.558;2023-04-10T01:01:58;100288.88;;;3.52;72.06
78841;BME280;68379;47.190;27.558;2023-04-10T01:04:30;100290.63;;;3.48;71.99
78841;BME280;68379;47.190;27.558;2023-04-10T01:07:06;100287.33;;;3.43;71.95
78841;BME280;68379;47.190;27.558;2023-04-10T01:09:55;100288.91;;;3.40;72.12
78841;BME280;68379;47.190;27.558;2023-04-10T01:12:44;100285.09;;;3.37;72.18
78841;BME280;68379;47.190;27.558;2023-04-10T01:15:21;100285.63;;;3.33;72.19
78841;BME280;68379;47.190;27.558;2023-04-10T01:17:58;100281.77;;;3.31;72.31
78841;BME280;68379;47.190;27.558;2023-04-10T01:20:34;100283.54;;;3.27;72.47
78841;BME280;68379;47.190;27.558;2023-04-10T01:23:28;100284.59;;;3.23;72.45
78841;BME280;68379;47.190;27.558;2023-04-10T01:26:06;100285.48;;;3.18;72.59
78841;BME280;68379;47.190;27.558;2023-04-10T01:28:54;100286.02;;;3.13;72.59
78841;BME280;68379;47.190;27.558;2023-04-10T01:31:33;100283.92;;;3.10;72.63
78841;BME280;68379;47.190;27.558;2023-04-10T01:34:09;100282.89;;;3.07;72.71
78841;BME280;68379;47.190;27.558;2023-04-10T01:36:50;100284.10;;;3.06;72.86
78841;BME280;68379;47.190;27.558;2023-04-10T01:39:24;100284.80;;;3.06;72.84
78841;BME280;68379;47.190;27.558;2023-04-10T01:41:58;100279.74;;;3.05;72.96
78841;BME280;68379;47.190;27.558;2023-04-10T01:44:32;100281.15;;;3.05;72.98
78841;BME280;68379;47.190;27.558;2023-04-10T01:47:07;100281.84;;;3.05;73.07
78841;BME280;68379;47.190;27.558;2023-04-10T01:49:40;100279.58;;;3.01;73.10
78841;BME280;68379;47.190;27.558;2023-04-10T01:52:14;100284.13;;;2.98;73.10
78841;BME280;68379;47.190;27.558;2023-04-10T01:54:48;100284.13;;;2.94;73.14
78841;BME280;68379;47.190;27.558;2023-04-10T01:57:20;100287.10;;;2.90;73.20
78841;BME280;68379;47.190;27.558;2023-04-10T01:59:52;100285.52;;;2.87;73.24
78841;BME280;68379;47.190;27.558;2023-04-10T02:02:24;100285.54;;;2.85;73.33
78841;BME280;68379;47.190;27.558;2023-04-10T02:04:56;100285.02;;;2.83;73.37
78841;BME280;68379;47.190;27.558;2023-04-10T02:07:35;100285.70;;;2.83;73.35
78841;BME280;68379;47.190;27.558;2023-04-10T02:10:12;100286.94;;;2.81;73.44
78841;BME280;68379;47.190;27.558;2023-04-10T02:12:48;100288.86;;;2.79;73.65
78841;BME280;68379;47.190;27.558;2023-04-10T02:15:25;100287.45;;;2.78;73.67
78841;BME280;68379;47.190;27.558;2023-04-10T02:17:59;100290.23;;;2.73;73.77
78841;BME280;68379;47.190;27.558;2023-04-10T02:20:33;100285.89;;;2.69;73.76
78841;BME280;68379;47.190;27.558;2023-04-10T02:23:06;100285.20;;;2.65;73.92
78841;BME280;68379;47.190;27.558;2023-04-10T02:25:39;100287.27;;;2.64;73.88
78841;BME280;68379;47.190;27.558;2023-04-10T02:28:11;100286.59;;;2.63;74.00
78841;BME280;68379;47.190;27.558;2023-04-10T02:30:43;100288.52;;;2.64;73.94
78841;BME280;68379;47.190;27.558;2023-04-10T02:33:14;100283.44;;;2.64;73.95
78841;BME280;68379;47.190;27.558;2023-04-10T02:35:46;100284.31;;;2.64;73.92
78841;BME280;68379;47.190;27.558;2023-04-10T02:38:19;100282.92;;;2.63;73.97
78841;BME280;68379;47.190;27.558;2023-04-10T02:40:50;100283.45;;;2.62;74.06
78841;BME280;68379;47.190;27.558;2023-04-10T02:43:22;100278.91;;;2.60;74.15
78841;BME280;68379;47.190;27.558;2023-04-10T02:45:54;100275.93;;;2.56;74.06
78841;BME280;68379;47.190;27.558;2023-04-10T02:48:26;100279.79;;;2.52;74.06
78841;BME280;68379;47.190;27.558;2023-04-10T02:51:00;100282.05;;;2.50;74.09
78841;BME280;68379;47.190;27.558;2023-04-10T02:53:33;100285.19;;;2.49;74.04
78841;BME280;68379;47.190;27.558;2023-04-10T02:56:06;100281.17;;;2.48;74.09
78841;BME280;68379;47.190;27.558;2023-04-10T02:58:38;100283.27;;;2.49;74.17
78841;BME280;68379;47.190;27.558;2023-04-10T03:01:11;100281.02;;;2.50;74.18
78841;BME280;68379;47.190;27.558;2023-04-10T03:03:42;100278.39;;;2.51;74.17
78841;BME280;68379;47.190;27.558;2023-04-10T03:06:14;100275.60;;;2.52;74.32
78841;BME280;68379;47.190;27.558;2023-04-10T03:08:46;100274.73;;;2.51;74.32
78841;BME280;68379;47.190;27.558;2023-04-10T03:11:18;100272.98;;;2.49;74.44
78841;BME280;68379;47.190;27.558;2023-04-10T03:13:50;100270.02;;;2.48;74.34
78841;BME280;68379;47.190;27.558;2023-04-10T03:16:22;100265.13;;;2.46;74.35
78841;BME280;68379;47.190;27.558;2023-04-10T03:18:54;100264.08;;;2.47;74.32
78841;BME280;68379;47.190;27.558;2023-04-10T03:21:25;100263.21;;;2.48;74.29
78841;BME280;68379;47.190;27.558;2023-04-10T03:23:57;100263.20;;;2.49;74.48
78841;BME280;68379;47.190;27.558;2023-04-10T03:26:29;100262.68;;;2.48;74.47
78841;BME280;68379;47.190;27.558;2023-04-10T03:29:01;100262.88;;;2.49;74.58
78841;BME280;68379;47.190;27.558;2023-04-10T03:31:33;100260.94;;;2.48;74.81
78841;BME280;68379;47.190;27.558;2023-04-10T03:34:05;100264.27;;;2.47;74.41
78841;BME280;68379;47.190;27.558;2023-04-10T03:36:36;100266.52;;;2.46;74.43
78841;BME280;68379;47.190;27.558;2023-04-10T03:39:08;100268.63;;;2.45;74.34
78841;BME280;68379;47.190;27.558;2023-04-10T03:41:40;100271.25;;;2.43;74.32
78841;BME280;68379;47.190;27.558;2023-04-10T03:44:11;100269.84;;;2.45;74.18
78841;BME280;68379;47.190;27.558;2023-04-10T03:46:43;100270.70;;;2.45;74.09
78841;BME280;68379;47.190;27.558;2023-04-10T03:49:14;100270.01;;;2.46;74.05
78841;BME280;68379;47.190;27.558;2023-04-10T03:51:46;100270.01;;;2.48;74.15
78841;BME280;68379;47.190;27.558;2023-04-10T03:54:18;100268.27;;;2.51;74.29
78841;BME280;68379;47.190;27.558;2023-04-10T03:56:50;100269.48;;;2.55;74.33
78841;BME280;68379;47.190;27.558;2023-04-10T03:59:21;100272.45;;;2.57;74.33
78841;BME280;68379;47.190;27.558;2023-04-10T04:01:53;100273.67;;;2.58;74.24
78841;BME280;68379;47.190;27.558;2023-04-10T04:04:25;100273.14;;;2.59;74.22
78841;BME280;68379;47.190;27.558;2023-04-10T04:06:57;100276.11;;;2.60;74.10
78841;BME280;68379;47.190;27.558;2023-04-10T04:09:28;100276.64;;;2.61;74.02
78841;BME280;68379;47.190;27.558;2023-04-10T04:12:00;100281.70;;;2.65;74.03
78841;BME280;68379;47.190;27.558;2023-04-10T04:14:32;100282.57;;;2.69;73.97
78841;BME280;68379;47.190;27.558;2023-04-10T04:17:04;100281.19;;;2.74;74.15
78841;BME280;68379;47.190;27.558;2023-04-10T04:19:36;100286.76;;;2.78;73.78
78841;BME280;68379;47.190;27.558;2023-04-10T04:22:08;100288.48;;;2.83;73.71
78841;BME280;68379;47.190;27.558;2023-04-10T04:24:40;100291.11;;;2.87;73.55
78841;BME280;68379;47.190;27.558;2023-04-10T04:27:12;100291.29;;;2.89;73.51
78841;BME280;68379;47.190;27.558;2023-04-10T04:29:43;100290.77;;;2.91;73.49
78841;BME280;68379;47.190;27.558;2023-04-10T04:32:16;100288.66;;;2.93;73.47
78841;BME280;68379;47.190;27.558;2023-04-10T04:34:48;100288.65;;;2.96;73.34
78841;BME280;68379;47.190;27.558;2023-04-10T04:37:20;100287.27;;;2.99;73.30
78841;BME280;68379;47.190;27.558;2023-04-10T04:39:52;100292.31;;;3.05;73.25
78841;BME280;68379;47.190;27.558;2023-04-10T04:42:24;100294.40;;;3.12;73.17
78841;BME280;68379;47.190;27.558;2023-04-10T04:44:56;100299.61;;;3.19;73.01
78841;BME280;68379;47.190;27.558;2023-04-10T04:47:28;100302.40;;;3.24;73.01
78841;BME280;68379;47.190;27.558;2023-04-10T04:50:00;100302.21;;;3.31;72.85
78841;BME280;68379;47.190;27.558;2023-04-10T04:52:33;100299.57;;;3.38;72.78
78841;BME280;68379;47.190;27.558;2023-04-10T04:55:07;100300.08;;;3.44;72.59
78841;BME280;68379;47.190;27.558;2023-04-10T04:57:39;100303.73;;;3.49;72.50
78841;BME280;68379;47.190;27.558;2023-04-10T05:00:13;100302.85;;;3.53;72.45
78841;BME280;68379;47.190;27.558;2023-04-10T05:02:45;100308.24;;;3.58;72.30
78841;BME280;68379;47.190;27.558;2023-04-10T05:05:17;100308.40;;;3.64;72.20
78841;BME280;68379;47.190;27.558;2023-04-10T05:07:48;100314.84;;;3.71;72.11
78841;BME280;68379;47.190;27.558;2023-04-10T05:10:20;100315.33;;;3.79;72.07
78841;BME280;68379;47.190;27.558;2023-04-10T05:12:52;100319.13;;;3.89;71.90
78841;BME280;68379;47.190;27.558;2023-04-10T05:15:24;100314.55;;;3.98;71.70
78841;BME280;68379;47.190;27.558;2023-04-10T05:17:56;100315.20;;;4.09;71.49
78841;BME280;68379;47.190;27.558;2023-04-10T05:20:28;100318.48;;;4.15;71.28
78841;BME280;68379;47.190;27.558;2023-04-10T05:23:00;100325.43;;;4.23;71.25
78841;BME280;68379;47.190;27.558;2023-04-10T05:25:32;100323.27;;;4.32;70.93
78841;BME280;68379;47.190;27.558;2023-04-10T05:28:04;100323.59;;;4.37;70.74
78841;BME280;68379;47.190;27.558;2023-04-10T05:30:35;100321.98;;;4.43;70.69
78841;BME280;68379;47.190;27.558;2023-04-10T05:33:07;100324.21;;;4.50;70.66
78841;BME280;68379;47.190;27.558;2023-04-10T05:35:39;100325.38;;;4.58;70.57
78841;BME280;68379;47.190;27.558;2023-04-10T05:38:11;100324.95;;;4.69;70.31
78841;BME280;68379;47.190;27.558;2023-04-10T05:40:45;100329.98;;;4.75;70.12
78841;BME280;68379;47.190;27.558;2023-04-10T05:43:17;100326.77;;;4.81;70.12
78841;BME280;68379;47.190;27.558;2023-04-10T05:45:49;100326.73;;;4.86;70.17
78841;BME280;68379;47.190;27.558;2023-04-10T05:48:20;100322.84;;;4.93;70.11
78841;BME280;68379;47.190;27.558;2023-04-10T05:50:55;100318.38;;;5.01;69.89
78841;BME280;68379;47.190;27.558;2023-04-10T05:53:30;100320.75;;;5.10;69.80
78841;BME280;68379;47.190;27.558;2023-04-10T05:56:02;100317.39;;;5.13;69.74
78841;BME280;68379;47.190;27.558;2023-04-10T05:58:34;100318.91;;;5.20;69.51
78841;BME280;68379;47.190;27.558;2023-04-10T06:01:07;100322.67;;;5.27;69.67
78841;BME280;68379;47.190;27.558;2023-04-10T06:03:38;100321.72;;;5.35;69.23
78841;BME280;68379;47.190;27.558;2023-04-10T06:06:11;100325.13;;;5.44;68.90
78841;BME280;68379;47.190;27.558;2023-04-10T06:08:42;100325.23;;;5.52;68.71
78841;BME280;68379;47.190;27.558;2023-04-10T06:11:14;100319.31;;;5.63;68.57
78841;BME280;68379;47.190;27.558;2023-04-10T06:13:46;100323.02;;;5.77;68.61
78841;BME280;68379;47.190;27.558;2023-04-10T06:16:18;100321.45;;;5.91;68.55
78841;BME280;68379;47.190;27.558;2023-04-10T06:18:50;100320.74;;;6.06;68.22
78841;BME280;68379;47.190;27.558;2023-04-10T06:21:23;100320.89;;;6.22;67.99
78841;BME280;68379;47.190;27.558;2023-04-10T06:23:55;100323.83;;;6.38;67.72
78841;BME280;68379;47.190;27.558;2023-04-10T06:26:27;100323.42;;;6.53;67.29
78841;BME280;68379;47.190;27.558;2023-04-10T06:28:59;100323.69;;;6.69;67.10
78841;BME280;68379;47.190;27.558;2023-04-10T06:31:33;100325.06;;;6.83;67.07
78841;BME280;68379;47.190;27.558;2023-04-10T06:34:05;100321.86;;;6.95;66.80
78841;BME280;68379;47.190;27.558;2023-04-10T06:36:37;100321.50;;;7.07;66.78
78841;BME280;68379;47.190;27.558;2023-04-10T06:39:09;100317.02;;;7.21;66.46
78841;BME280;68379;47.190;27.558;2023-04-10T06:41:41;100319.74;;;7.35;66.21
78841;BME280;68379;47.190;27.558;2023-04-10T06:44:13;100318.23;;;7.51;66.09
78841;BME280;68379;47.190;27.558;2023-04-10T06:46:45;100318.86;;;7.63;65.51
78841;BME280;68379;47.190;27.558;2023-04-10T06:49:17;100318.77;;;7.68;65.61
78841;BME280;68379;47.190;27.558;2023-04-10T06:51:50;100320.40;;;7.75;65.56
78841;BME280;68379;47.190;27.558;2023-04-10T06:54:22;100319.45;;;7.87;64.80
78841;BME280;68379;47.190;27.558;2023-04-10T06:56:54;100323.02;;;8.02;63.81
78841;BME280;68379;47.190;27.558;2023-04-10T06:59:28;100320.00;;;8.11;63.35
78841;BME280;68379;47.190;27.558;2023-04-10T07:02:01;100321.41;;;8.27;63.62
78841;BME280;68379;47.190;27.558;2023-04-10T07:04:33;100324.29;;;8.41;63.14
78841;BME280;68379;47.190;27.558;2023-04-10T07:07:05;100322.16;;;8.57;63.90
78841;BME280;68379;47.190;27.558;2023-04-10T07:09:38;100324.86;;;8.70;62.38
78841;BME280;68379;47.190;27.558;2023-04-10T07:12:10;100325.55;;;8.78;62.37
78841;BME280;68379;47.190;27.558;2023-04-10T07:14:42;100323.55;;;8.87;61.85
78841;BME280;68379;47.190;27.558;2023-04-10T07:17:13;100323.56;;;8.94;62.26
78841;BME280;68379;47.190;27.558;2023-04-10T07:19:45;100316.55;;;9.06;62.43
78841;BME280;68379;47.190;27.558;2023-04-10T07:22:17;100319.67;;;9.15;61.83
78841;BME280;68379;47.190;27.558;2023-04-10T07:24:49;100315.18;;;9.25;62.09
78841;BME280;68379;47.190;27.558;2023-04-10T07:27:20;100318.37;;;9.38;61.58
78841;BME280;68379;47.190;27.558;2023-04-10T07:29:54;100311.03;;;9.48;61.59
78841;BME280;68379;47.190;27.558;2023-04-10T07:32:26;100310.56;;;9.59;61.32
78841;BME280;68379;47.190;27.558;2023-04-10T07:34:58;100310.85;;;9.73;61.42
78841;BME280;68379;47.190;27.558;2023-04-10T07:37:30;100306.18;;;9.88;60.82
78841;BME280;68379;47.190;27.558;2023-04-10T07:40:02;100300.98;;;10.04;61.85
78841;BME280;68379;47.190;27.558;2023-04-10T07:42:34;100298.79;;;10.12;60.69
78841;BME280;68379;47.190;27.558;2023-04-10T07:45:08;100299.80;;;10.14;60.99
78841;BME280;68379;47.190;27.558;2023-04-10T07:47:40;100300.99;;;10.15;61.07
78841;BME280;68379;47.190;27.558;2023-04-10T07:50:12;100299.41;;;10.27;60.97
78841;BME280;68379;47.190;27.558;2023-04-10T07:52:44;100300.02;;;10.37;60.42
78841;BME280;68379;47.190;27.558;2023-04-10T07:55:16;100298.31;;;10.35;59.94
78841;BME280;68379;47.190;27.558;2023-04-10T07:57:48;100295.36;;;10.39;60.21
78841;BME280;68379;47.190;27.558;2023-04-10T08:00:22;100297.98;;;10.51;60.16
78841;BME280;68379;47.190;27.558;2023-04-10T08:02:54;100299.25;;;10.55;59.43
78841;BME280;68379;47.190;27.558;2023-04-10T08:05:26;100304.19;;;10.67;59.96
78841;BME280;68379;47.190;27.558;2023-04-10T08:07:58;100301.61;;;10.75;58.58
78841;BME280;68379;47.190;27.558;2023-04-10T08:10:30;100300.69;;;10.71;58.20
78841;BME280;68379;47.190;27.558;2023-04-10T08:13:02;100300.02;;;10.70;58.29
78841;BME280;68379;47.190;27.558;2023-04-10T08:15:35;100299.88;;;10.74;57.89
78841;BME280;68379;47.190;27.558;2023-04-10T08:18:07;100283.76;;;10.75;58.72
78841;BME280;68379;47.190;27.558;2023-04-10T08:20:39;100284.23;;;10.83;58.64
78841;BME280;68379;47.190;27.558;2023-04-10T08:23:11;100283.34;;;10.88;58.06
78841;BME280;68379;47.190;27.558;2023-04-10T08:25:43;100283.97;;;10.95;58.97
78841;BME280;68379;47.190;27.558;2023-04-10T08:28:15;100283.29;;;11.00;56.63
78841;BME280;68379;47.190;27.558;2023-04-10T08:30:49;100285.31;;;10.98;56.28
78841;BME280;68379;47.190;27.558;2023-04-10T08:33:21;100288.47;;;11.04;56.84
78841;BME280;68379;47.190;27.558;2023-04-10T08:35:53;100290.09;;;11.02;56.08
78841;BME280;68379;47.190;27.558;2023-04-10T08:38:25;100289.80;;;11.11;57.69
78841;BME280;68379;47.190;27.558;2023-04-10T08:40:57;100284.85;;;11.27;56.24
78841;BME280;68379;47.190;27.558;2023-04-10T08:43:29;100285.55;;;11.32;55.66
78841;BME280;68379;47.190;27.558;2023-04-10T08:46:02;100286.38;;;11.38;55.50
78841;BME280;68379;47.190;27.558;2023-04-10T08:48:37;100286.50;;;11.45;56.30
78841;BME280;68379;47.190;27.558;2023-04-10T08:51:16;100281.70;;;11.55;55.96
78841;BME280;68379;47.190;27.558;2023-04-10T08:53:51;100282.00;;;11.71;56.41
78841;BME280;68379;47.190;27.558;2023-04-10T08:56:25;100276.69;;;11.86;55.46
78841;BME280;68379;47.190;27.558;2023-04-10T08:58:57;100276.57;;;11.84;53.71
78841;BME280;68379;47.190;27.558;2023-04-10T09:01:30;100271.96;;;11.79;54.32
78841;BME280;68379;47.190;27.558;2023-04-10T09:04:04;100271.63;;;11.84;55.11
78841;BME280;68379;47.190;27.558;2023-04-10T09:06:36;100271.46;;;11.93;55.31
78841;BME280;68379;47.190;27.558;2023-04-10T09:09:08;100263.42;;;12.05;54.75
78841;BME280;68379;47.190;27.558;2023-04-10T09:12:00;100265.11;;;12.11;54.40
78841;BME280;68379;47.190;27.558;2023-04-10T09:14:35;100257.81;;;12.26;55.68
78841;BME280;68379;47.190;27.558;2023-04-10T09:17:15;100259.15;;;12.46;55.32
78841;BME280;68379;47.190;27.558;2023-04-10T09:19:48;100258.48;;;12.49;53.78
78841;BME280;68379;47.190;27.558;2023-04-10T09:22:30;100254.55;;;12.46;53.26
78841;BME280;68379;47.190;27.558;2023-04-10T09:25:03;100248.05;;;12.48;53.85
78841;BME280;68379;47.190;27.558;2023-04-10T09:27:36;100248.30;;;12.59;53.86
78841;BME280;68379;47.190;27.558;2023-04-10T09:30:10;100248.08;;;12.69;54.50
78841;BME280;68379;47.190;27.558;2023-04-10T09:33:11;100244.20;;;12.73;52.91
78841;BME280;68379;47.190;27.558;2023-04-10T09:35:51;100243.79;;;12.74;53.89
78841;BME280;68379;47.190;27.558;2023-04-10T09:38:24;100237.14;;;12.80;54.13
78841;BME280;68379;47.190;27.558;2023-04-10T09:41:07;100238.73;;;12.89;51.94
78841;BME280;68379;47.190;27.558;2023-04-10T09:43:39;100236.59;;;12.85;53.38
78841;BME280;68379;47.190;27.558;2023-04-10T09:46:13;100240.71;;;12.92;53.02
78841;BME280;68379;47.190;27.558;2023-04-10T09:48:58;100238.84;;;12.91;51.75
78841;BME280;68379;47.190;27.558;2023-04-10T09:51:31;100238.52;;;12.85;52.89
78841;BME280;68379;47.190;27.558;2023-04-10T09:54:04;100229.36;;;12.97;52.72
78841;BME280;68379;47.190;27.558;2023-04-10T09:56:38;100227.48;;;13.07;51.96
78841;BME280;68379;47.190;27.558;2023-04-10T09:59:10;100230.56;;;13.14;51.89
78841;BME280;68379;47.190;27.558;2023-04-10T10:01:45;100229.34;;;13.21;51.53
78841;BME280;68379;47.190;27.558;2023-04-10T10:04:17;100229.06;;;13.33;51.63
78841;BME280;68379;47.190;27.558;2023-04-10T10:06:49;100226.16;;;13.38;50.11
78841;BME280;68379;47.190;27.558;2023-04-10T10:09:22;100228.23;;;13.39;50.74
78841;BME280;68379;47.190;27.558;2023-04-10T10:11:55;100224.84;;;13.52;49.83
78841;BME280;68379;47.190;27.558;2023-04-10T10:14:29;100224.36;;;13.61;51.42
78841;BME280;68379;47.190;27.558;2023-04-10T10:17:06;100219.14;;;13.79;50.03
78841;BME280;68379;47.190;27.558;2023-04-10T10:19:44;100220.52;;;13.88;49.61
78841;BME280;68379;47.190;27.558;2023-04-10T10:22:20;100213.81;;;13.83;49.11
78841;BME280;68379;47.190;27.558;2023-04-10T10:24:54;100213.60;;;13.88;49.60
78841;BME280;68379;47.190;27.558;2023-04-10T10:27:27;100208.06;;;14.06;50.69
78841;BME280;68379;47.190;27.558;2023-04-10T10:30:01;100209.50;;;14.28;49.32
78841;BME280;68379;47.190;27.558;2023-04-10T10:32:34;100203.49;;;14.46;49.91
78841;BME280;68379;47.190;27.558;2023-04-10T10:35:08;100206.98;;;14.62;49.04
78841;BME280;68379;47.190;27.558;2023-04-10T10:37:40;100207.59;;;14.61;49.31
78841;BME280;68379;47.190;27.558;2023-04-10T10:40:21;100202.91;;;14.62;49.18
78841;BME280;68379;47.190;27.558;2023-04-10T10:43:03;100203.02;;;14.66;49.58
78841;BME280;68379;47.190;27.558;2023-04-10T10:45:41;100204.72;;;14.68;49.22
78841;BME280;68379;47.190;27.558;2023-04-10T10:48:18;100198.84;;;14.68;48.46
78841;BME280;68379;47.190;27.558;2023-04-10T10:50:54;100194.10;;;14.78;48.27
78841;BME280;68379;47.190;27.558;2023-04-10T10:53:35;100194.14;;;14.84;48.60
78841;BME280;68379;47.190;27.558;2023-04-10T10:56:34;100189.02;;;14.76;47.14
78841;BME280;68379;47.190;27.558;2023-04-10T10:59:09;100191.20;;;14.79;46.97
78841;BME280;68379;47.190;27.558;2023-04-10T11:02:13;100186.79;;;14.85;47.45
78841;BME280;68379;47.190;27.558;2023-04-10T11:04:47;100186.23;;;14.95;46.39
78841;BME280;68379;47.190;27.558;2023-04-10T11:07:19;100183.84;;;15.07;47.27
78841;BME280;68379;47.190;27.558;2023-04-10T11:09:53;100187.39;;;15.18;47.38
78841;BME280;68379;47.190;27.558;2023-04-10T11:12:26;100181.45;;;15.19;47.12
78841;BME280;68379;47.190;27.558;2023-04-10T11:15:02;100177.10;;;15.17;46.48
78841;BME280;68379;47.190;27.558;2023-04-10T11:17:53;100178.80;;;15.19;46.31
78841;BME280;68379;47.190;27.558;2023-04-10T11:20:25;100173.64;;;15.32;46.20
78841;BME280;68379;47.190;27.558;2023-04-10T11:23:11;100175.36;;;15.43;46.31
78841;BME280;68379;47.190;27.558;2023-04-10T11:25:53;100170.86;;;15.50;44.98
78841;BME280;68379;47.190;27.558;2023-04-10T11:28:37;100174.25;;;15.50;44.86
78841;BME280;68379;47.190;27.558;2023-04-10T11:31:17;100177.23;;;15.48;44.99
78841;BME280;68379;47.190;27.558;2023-04-10T11:34:00;100167.48;;;15.50;43.83
78841;BME280;68379;47.190;27.558;2023-04-10T11:36:34;100161.15;;;15.56;41.86
78841;BME280;68379;47.190;27.558;2023-04-10T11:39:09;100161.27;;;15.40;41.07
78841;BME280;68379;47.190;27.558;2023-04-10T11:41:43;100161.73;;;15.48;43.01
78841;BME280;68379;47.190;27.558;2023-04-10T11:44:17;100155.38;;;15.63;42.87
78841;BME280;68379;47.190;27.558;2023-04-10T11:46:50;100156.89;;;15.82;43.02
78841;BME280;68379;47.190;27.558;2023-04-10T11:49:23;100151.86;;;15.95;42.27
78841;BME280;68379;47.190;27.558;2023-04-10T11:51:55;100149.50;;;15.96;40.71
78841;BME280;68379;47.190;27.558;2023-04-10T11:54:28;100146.23;;;16.06;42.41
78841;BME280;68379;47.190;27.558;2023-04-10T11:57:03;100148.49;;;16.26;42.93
78841;BME280;68379;47.190;27.558;2023-04-10T11:59:36;100151.33;;;16.44;42.89
78841;BME280;68379;47.190;27.558;2023-04-10T12:02:09;100140.82;;;16.62;42.28
78841;BME280;68379;47.190;27.558;2023-04-10T12:04:46;100141.84;;;16.78;42.09
78841;BME280;68379;47.190;27.558;2023-04-10T12:07:29;100145.10;;;16.83;38.98
78841;BME280;68379;47.190;27.558;2023-04-10T12:10:01;100144.80;;;16.70;39.71
78841;BME280;68379;47.190;27.558;2023-04-10T12:12:37;100140.58;;;16.78;38.30
78841;BME280;68379;47.190;27.558;2023-04-10T12:15:27;100139.39;;;16.71;37.60
78841;BME280;68379;47.190;27.558;2023-04-10T12:17:59;100136.83;;;16.72;37.73
78841;BME280;68379;47.190;27.558;2023-04-10T12:20:32;100136.95;;;16.49;37.52
78841;BME280;68379;47.190;27.558;2023-04-10T12:23:04;100131.24;;;16.64;38.30
78841;BME280;68379;47.190;27.558;2023-04-10T12:25:37;100129.80;;;16.71;36.74
78841;BME280;68379;47.190;27.558;2023-04-10T12:28:14;100127.79;;;16.77;37.68
78841;BME280;68379;47.190;27.558;2023-04-10T12:30:51;100126.55;;;16.86;38.45
78841;BME280;68379;47.190;27.558;2023-04-10T12:33:25;100126.29;;;16.93;38.86
78841;BME280;68379;47.190;27.558;2023-04-10T12:35:57;100113.31;;;17.01;38.42
78841;BME280;68379;47.190;27.558;2023-04-10T12:38:40;100114.90;;;17.02;37.22
78841;BME280;68379;47.190;27.558;2023-04-10T12:41:13;100108.70;;;17.13;36.79
78841;BME280;68379;47.190;27.558;2023-04-10T12:43:52;100108.46;;;17.19;36.04
78841;BME280;68379;47.190;27.558;2023-04-10T12:46:38;100109.45;;;17.23;36.92
78841;BME280;68379;47.190;27.558;2023-04-10T12:49:15;100099.12;;;17.34;36.38
78841;BME280;68379;47.190;27.558;2023-04-10T12:51:49;100096.75;;;17.49;35.56
78841;BME280;68379;47.190;27.558;2023-04-10T12:54:31;100093.90;;;17.60;35.25
78841;BME280;68379;47.190;27.558;2023-04-10T12:57:04;100087.94;;;17.61;34.14
78841;BME280;68379;47.190;27.558;2023-04-10T12:59:34;100088.20;;;17.57;33.91
78841;BME280;68379;47.190;27.558;2023-04-10T13:02:07;100087.41;;;17.56;34.57
78841;BME280;68379;47.190;27.558;2023-04-10T13:04:39;100084.04;;;17.60;35.51
78841;BME280;68379;47.190;27.558;2023-04-10T13:07:11;100083.68;;;17.69;34.38
78841;BME280;68379;47.190;27.558;2023-04-10T13:09:43;100078.41;;;17.87;35.89
78841;BME280;68379;47.190;27.558;2023-04-10T13:12:15;100078.24;;;18.22;34.73
78841;BME280;68379;47.190;27.558;2023-04-10T13:14:47;100071.66;;;18.61;32.74
78841;BME280;68379;47.190;27.558;2023-04-10T13:17:19;100072.06;;;18.78;33.50
78841;BME280;68379;47.190;27.558;2023-04-10T13:19:52;100065.66;;;19.18;33.66